This is the latest recevied weather packets stored in our database for station/object DO1YM-13. If no packets are shown the sender has not sent any weather packets the latest 10 day(s).
| Time | Temp. | Humidity | Pressure | Rain* | Wind** | Luminosity | Snow |
|---|---|---|---|---|---|---|---|
| 1787398247 | 18.33° C | 60% | 1009.1 hPa | 0 mm | - | 106 W/m² | - |
| 1787397947 | 18.33° C | 60% | 1009.1 hPa | 0 mm | - | 106 W/m² | - |
| 1787397647 | 18.33° C | 59% | 1009.1 hPa | 0 mm | - | 106 W/m² | - |
| 1787397347 | 18.33° C | 58% | 1009.1 hPa | 0 mm | - | 83 W/m² | - |
| 1787397047 | 18.33° C | 59% | 1009.1 hPa | 0 mm | - | 135 W/m² | - |
| 1787396747 | 18.89° C | 57% | 1008.8 hPa | 0 mm | - | 117 W/m² | - |
| 1787396447 | 18.89° C | 55% | 1008.8 hPa | 0 mm | - | 203 W/m² | - |
| 1787396147 | 18.89° C | 55% | 1008.8 hPa | 0 mm | - | 198 W/m² | - |
| 1787395847 | 19.44° C | 56% | 1008.5 hPa | 0 mm | - | 162 W/m² | - |
| 1787395547 | 19.44° C | 57% | 1008.8 hPa | 0 mm | - | 196 W/m² | - |
| 1787395250 | 18.89° C | 56% | 1008.5 hPa | 0 mm | - | 261 W/m² | - |
| 1787394948 | 18.89° C | 55% | 1008.5 hPa | 0 mm | - | 452 W/m² | - |
| 1787394647 | 18.33° C | 58% | 1008.5 hPa | 0 mm | - | 587 W/m² | - |
| 1787394348 | 18.33° C | 59% | 1008.5 hPa | 0 mm | - | 471 W/m² | - |
| 1787394048 | 18.89° C | 57% | 1008.5 hPa | 0 mm | - | 112 W/m² | - |
| 1787393747 | 18.33° C | 58% | 1008.5 hPa | 0 mm | - | 167 W/m² | - |
| 1787393447 | 18.89° C | 57% | 1008.5 hPa | 0 mm | - | 254 W/m² | - |
| 1787393147 | 19.44° C | 55% | 1008.5 hPa | 0 mm | - | 141 W/m² | - |
| 1787392848 | 18.89° C | 57% | 1008.1 hPa | 0 mm | - | 789 W/m² | - |
| 1787392548 | 18.89° C | 54% | 1008.1 hPa | 0 mm | - | 405 W/m² | - |
| 1787392247 | 20° C | 52% | 1008.5 hPa | 0 mm | - | 769 W/m² | - |
| 1787391947 | 19.44° C | 55% | 1008.5 hPa | 0 mm | - | 716 W/m² | - |
| 1787391647 | 18.89° C | 56% | 1007.8 hPa | 0 mm | - | 743 W/m² | - |
| 1787391349 | 18.89° C | 56% | 1008.1 hPa | 0 mm | - | 716 W/m² | - |
| 1787391049 | 18.33° C | 57% | 1007.8 hPa | 0 mm | - | 166 W/m² | - |
* Rain latest hour (hover to see other rain measurements)
** Current wind speed in m/s (hover to see current wind gust speed)